Time;durP1;ratioP1;P1;durP2;ratioP2;P2;SDS_P1;SDS_P2;PMS_P1;PMS_P2;Temp;Humidity;BMP_temperature;BMP_pressure;BME280_temperature;BME280_humidity;BME280_pressure;Samples;Min_cycle;Max_cycle;Signal;HPM_P1;HPM_P2
2023/12/17 00:01:54;;;;;;;;;;;8.60;99.90;;;;;;5109282;27;19927;-75
2023/12/17 00:04:20;;;;;;;;;;;8.60;99.90;;;;;;5106708;27;20399;-75
2023/12/17 00:06:45;;;;;;;;;;;8.60;99.90;;;;;;5115806;27;19948;-75
2023/12/17 00:09:11;;;;;;;;;;;8.60;99.90;;;;;;5112117;27;19927;-77
2023/12/17 00:11:42;;;;;;;;;;;8.60;99.90;;;;;;5089360;27;19928;-77
2023/12/17 00:14:12;;;;;;;;;;;8.60;99.90;;;;;;5100415;27;20310;-75
2023/12/17 00:16:38;;;;;;;;;;;8.50;99.90;;;;;;5099520;27;19927;-78
2023/12/17 00:19:04;;;;;;;;;;;8.50;99.90;;;;;;5094544;27;19931;-75
2023/12/17 00:21:30;;;;;;;;;;;8.40;99.90;;;;;;5096760;27;19928;-78
2023/12/17 00:23:55;;;;;;;;;;;8.40;99.90;;;;;;5105170;27;19934;-75
2023/12/17 00:26:21;;;;;;;;;;;8.50;99.90;;;;;;5089256;27;19929;-75
2023/12/17 00:28:46;;;;;;;;;;;8.50;99.90;;;;;;5095434;27;19927;-75
2023/12/17 00:31:12;;;;;;;;;;;8.60;99.90;;;;;;5088355;27;20297;-75
2023/12/17 00:33:38;;;;;;;;;;;8.60;99.90;;;;;;5106517;27;19924;-75
2023/12/17 00:36:03;;;;;;;;;;;8.60;99.90;;;;;;5106999;27;20386;-75
2023/12/17 00:38:29;;;;;;;;;;;8.60;99.90;;;;;;5112194;27;20809;-75
2023/12/17 00:40:55;;;;;;;;;;;8.50;99.90;;;;;;5089193;27;19934;-75
2023/12/17 00:43:20;;;;;;;;;;;8.50;99.90;;;;;;5107986;27;19919;-75
2023/12/17 00:45:46;;;;;;;;;;;8.50;99.90;;;;;;5110231;27;20010;-75
2023/12/17 00:48:11;;;;;;;;;;;8.50;99.90;;;;;;5107620;27;19933;-74
2023/12/17 00:50:37;;;;;;;;;;;8.50;99.90;;;;;;5106314;27;20017;-74
2023/12/17 00:53:03;;;;;;;;;;;8.50;99.90;;;;;;5096123;27;19927;-75
2023/12/17 00:55:28;;;;;;;;;;;8.50;99.90;;;;;;5111436;27;19962;-75
2023/12/17 00:57:54;;;;;;;;;;;8.50;99.90;;;;;;5112510;27;19931;-75
2023/12/17 01:00:19;;;;;;;;;;;8.50;99.90;;;;;;5107360;27;19979;-75
2023/12/17 01:02:45;;;;;;;;;;;7.60;99.90;;;;;;5106305;27;20369;-75
2023/12/17 01:05:11;;;;;;;;;;;8.40;99.90;;;;;;5084394;27;20014;-75
2023/12/17 01:07:37;;;;;;;;;;;8.40;99.90;;;;;;5108459;27;19932;-76
2023/12/17 01:10:03;;;;;;;;;;;8.40;99.90;;;;;;5108212;27;19923;-75
2023/12/17 01:12:28;;;;;;;;;;;8.40;99.90;;;;;;5097928;27;20361;-75
2023/12/17 01:14:54;;;;;;;;;;;8.50;99.90;;;;;;5108638;27;19967;-75
2023/12/17 01:17:19;;;;;;;;;;;8.50;99.90;;;;;;5123990;27;19935;-75
2023/12/17 01:19:45;;;;;;;;;;;8.50;99.90;;;;;;5111932;27;19972;-75
2023/12/17 01:22:11;;;;;;;;;;;8.40;99.90;;;;;;5104217;27;20022;-75
2023/12/17 01:24:37;;;;;;;;;;;8.40;99.90;;;;;;5110701;27;19963;-75
2023/12/17 01:27:03;;;;;;;;;;;8.40;99.90;;;;;;5109664;27;20372;-75
2023/12/17 01:29:29;;;;;;;;;;;8.40;99.90;;;;;;5126491;27;19928;-74
2023/12/17 01:31:57;;;;;;;;;;;8.40;99.90;;;;;;5097633;27;19988;-75
2023/12/17 01:34:23;;;;;;;;;;;8.40;99.90;;;;;;5096600;27;19946;-75
2023/12/17 01:36:49;;;;;;;;;;;8.40;99.90;;;;;;5113366;27;19927;-75
2023/12/17 01:39:16;;;;;;;;;;;8.40;99.90;;;;;;5108198;27;19933;-75
2023/12/17 01:41:41;;;;;;;;;;;8.40;99.90;;;;;;5112473;27;20212;-75
2023/12/17 01:44:07;;;;;;;;;;;8.50;99.90;;;;;;5098895;27;20269;-75
2023/12/17 01:46:32;;;;;;;;;;;8.50;99.90;;;;;;5116914;27;20351;-75
2023/12/17 01:48:58;;;;;;;;;;;8.50;99.90;;;;;;5094973;27;20028;-75
2023/12/17 01:51:24;;;;;;;;;;;8.60;99.90;;;;;;5114441;27;20438;-75
2023/12/17 01:53:50;;;;;;;;;;;8.60;99.90;;;;;;5117306;27;20019;-75
2023/12/17 01:56:16;;;;;;;;;;;8.60;99.90;;;;;;5109081;27;19927;-75
2023/12/17 01:58:44;;;;;;;;;;;8.60;99.90;;;;;;5111497;27;19927;-75
2023/12/17 02:01:10;;;;;;;;;;;8.60;99.90;;;;;;5115972;27;19928;-75
2023/12/17 02:03:35;;;;;;;;;;;8.60;99.90;;;;;;5090107;27;21698;-75
2023/12/17 02:06:06;;;;;;;;;;;8.60;99.90;;;;;;5109239;27;20599;-75
2023/12/17 02:08:32;;;;;;;;;;;8.60;99.90;;;;;;5098765;27;19938;-75
2023/12/17 02:10:58;;;;;;;;;;;8.50;99.90;;;;;;5114058;27;19926;-75
2023/12/17 02:13:23;;;;;;;;;;;8.50;99.90;;;;;;5113048;27;19979;-75
2023/12/17 02:15:49;;;;;;;;;;;8.50;99.90;;;;;;5109193;27;19933;-75
2023/12/17 02:18:14;;;;;;;;;;;8.40;99.90;;;;;;5113231;27;19934;-75
2023/12/17 02:20:42;;;;;;;;;;;8.40;99.90;;;;;;5094615;27;19927;-75
2023/12/17 02:23:07;;;;;;;;;;;8.40;99.90;;;;;;5113951;27;20025;-75
2023/12/17 02:25:33;;;;;;;;;;;8.40;99.90;;;;;;5112939;27;20510;-75
2023/12/17 02:27:59;;;;;;;;;;;8.40;99.90;;;;;;5091211;27;19924;-75
2023/12/17 02:30:24;;;;;;;;;;;8.40;99.90;;;;;;5109999;27;19930;-76
2023/12/17 02:32:51;;;;;;;;;;;8.40;99.90;;;;;;5089085;27;20550;-75
2023/12/17 02:35:16;;;;;;;;;;;8.40;99.90;;;;;;5114163;27;19927;-75
2023/12/17 02:37:42;;;;;;;;;;;8.40;99.90;;;;;;5112457;27;20626;-76
2023/12/17 02:40:08;;;;;;;;;;;8.40;99.90;;;;;;5109867;27;20282;-75
2023/12/17 02:42:33;;;;;;;;;;;8.40;99.90;;;;;;5083937;27;20350;-75
2023/12/17 02:44:59;;;;;;;;;;;8.40;99.90;;;;;;5091441;27;19981;-75
2023/12/17 02:47:24;;;;;;;;;;;8.40;99.90;;;;;;5108917;27;19931;-77
2023/12/17 02:49:50;;;;;;;;;;;8.40;99.90;;;;;;5109316;27;20009;-76
2023/12/17 02:52:16;;;;;;;;;;;8.40;99.90;;;;;;5096060;27;20389;-75
2023/12/17 02:54:42;;;;;;;;;;;8.40;99.90;;;;;;5113713;27;19927;-75
2023/12/17 02:57:07;;;;;;;;;;;8.50;99.90;;;;;;5113769;27;20017;-75
2023/12/17 02:59:33;;;;;;;;;;;8.50;99.90;;;;;;5098981;27;19928;-76
2023/12/17 03:01:59;;;;;;;;;;;8.50;99.90;;;;;;5111779;27;20006;-75
2023/12/17 03:04:24;;;;;;;;;;;8.50;99.90;;;;;;5093898;27;19923;-75
2023/12/17 03:06:50;;;;;;;;;;;8.40;99.90;;;;;;5103433;27;19927;-75
2023/12/17 03:09:16;;;;;;;;;;;8.40;99.90;;;;;;5106968;27;19934;-75
2023/12/17 03:11:41;;;;;;;;;;;8.40;99.90;;;;;;5100972;27;19938;-75
2023/12/17 03:14:07;;;;;;;;;;;8.40;99.90;;;;;;5097130;27;19934;-75
2023/12/17 03:16:33;;;;;;;;;;;8.40;99.90;;;;;;5115247;27;20294;-75
2023/12/17 03:18:59;;;;;;;;;;;8.40;99.90;;;;;;5094528;27;19962;-75
2023/12/17 03:21:26;;;;;;;;;;;8.40;99.90;;;;;;5108133;27;20016;-76
2023/12/17 03:23:53;;;;;;;;;;;8.40;99.90;;;;;;5115996;27;19928;-76
2023/12/17 03:26:19;;;;;;;;;;;8.40;99.90;;;;;;5098026;27;19927;-75
2023/12/17 03:28:44;;;;;;;;;;;8.40;99.90;;;;;;5113917;27;20326;-76
2023/12/17 03:31:14;;;;;;;;;;;8.40;99.90;;;;;;5112198;27;19927;-76
2023/12/17 03:33:43;;;;;;;;;;;8.40;99.90;;;;;;5116510;27;19974;-76
2023/12/17 03:36:13;;;;;;;;;;;8.40;99.90;;;;;;5110901;27;20301;-75
2023/12/17 03:38:39;;;;;;;;;;;8.40;99.90;;;;;;5096735;27;19979;-76
2023/12/17 03:41:05;;;;;;;;;;;8.30;99.90;;;;;;5109753;27;19923;-76
2023/12/17 03:43:31;;;;;;;;;;;8.30;99.90;;;;;;5075380;27;19935;-76
2023/12/17 03:45:56;;;;;;;;;;;8.30;99.90;;;;;;5094874;27;19997;-75
2023/12/17 03:48:22;;;;;;;;;;;8.30;99.90;;;;;;5097178;27;20014;-76
2023/12/17 03:50:47;;;;;;;;;;;8.20;99.90;;;;;;5099037;27;19931;-76
2023/12/17 03:53:13;;;;;;;;;;;8.20;99.90;;;;;;5108060;27;20306;-76
2023/12/17 03:55:39;;;;;;;;;;;8.20;99.90;;;;;;5111970;27;20051;-76
2023/12/17 03:58:04;;;;;;;;;;;8.20;99.90;;;;;;5128054;27;20618;-75
2023/12/17 04:00:30;;;;;;;;;;;8.20;99.90;;;;;;5098934;27;20270;-76
2023/12/17 04:02:56;;;;;;;;;;;8.20;99.90;;;;;;5111521;27;19938;-76
2023/12/17 04:05:22;;;;;;;;;;;8.20;99.90;;;;;;5108933;27;19930;-75
2023/12/17 04:07:48;;;;;;;;;;;8.30;99.90;;;;;;5109490;27;21363;-76
2023/12/17 04:10:13;;;;;;;;;;;8.20;99.90;;;;;;5114219;27;20382;-76
2023/12/17 04:12:39;;;;;;;;;;;8.20;99.90;;;;;;5107138;27;20045;-76
2023/12/17 04:15:08;;;;;;;;;;;8.20;99.90;;;;;;5111349;27;20407;-75
2023/12/17 04:17:33;;;;;;;;;;;8.20;99.90;;;;;;5109186;27;20253;-76
2023/12/17 04:19:59;;;;;;;;;;;8.10;99.90;;;;;;5111537;27;20549;-76
2023/12/17 04:22:25;;;;;;;;;;;8.10;99.90;;;;;;5091644;27;19931;-75
2023/12/17 04:24:50;;;;;;;;;;;8.10;99.90;;;;;;5094719;27;19931;-76
2023/12/17 04:27:16;;;;;;;;;;;8.20;99.90;;;;;;5082361;27;22233;-76
2023/12/17 04:29:42;;;;;;;;;;;8.20;99.90;;;;;;5093938;27;19938;-76
2023/12/17 04:32:08;;;;;;;;;;;8.20;99.90;;;;;;5096873;27;20447;-75
2023/12/17 04:34:33;;;;;;;;;;;8.20;99.90;;;;;;5126474;27;19927;-75
2023/12/17 04:36:59;;;;;;;;;;;8.30;99.90;;;;;;5104509;27;19923;-76
2023/12/17 04:39:28;;;;;;;;;;;8.30;99.90;;;;;;5112136;27;20192;-76
2023/12/17 04:41:54;;;;;;;;;;;8.30;99.90;;;;;;5095009;27;19923;-76
2023/12/17 04:44:21;;;;;;;;;;;8.40;99.90;;;;;;5108835;27;20310;-76
2023/12/17 04:46:47;;;;;;;;;;;8.40;99.90;;;;;;5105282;27;19931;-75
2023/12/17 04:49:12;;;;;;;;;;;8.40;99.90;;;;;;5106473;27;19927;-76
2023/12/17 04:51:38;;;;;;;;;;;8.40;99.90;;;;;;5105188;27;19930;-76
2023/12/17 04:54:04;;;;;;;;;;;8.50;99.90;;;;;;5087637;27;19927;-76
2023/12/17 04:56:30;;;;;;;;;;;8.50;99.90;;;;;;5104623;27;20425;-75
2023/12/17 04:58:55;;;;;;;;;;;8.50;99.90;;;;;;5109409;27;20547;-76
2023/12/17 05:01:21;;;;;;;;;;;8.50;99.90;;;;;;5106198;27;19927;-76
2023/12/17 05:03:46;;;;;;;;;;;8.50;99.90;;;;;;5096313;27;19946;-76
2023/12/17 05:06:12;;;;;;;;;;;8.50;99.90;;;;;;5080640;27;19923;-76
2023/12/17 05:08:38;;;;;;;;;;;8.50;99.90;;;;;;5107883;27;19985;-75
2023/12/17 05:11:03;;;;;;;;;;;8.50;99.90;;;;;;5108686;27;19925;-76
2023/12/17 05:13:29;;;;;;;;;;;8.50;99.90;;;;;;5102934;27;19924;-76
2023/12/17 05:15:55;;;;;;;;;;;8.50;99.90;;;;;;5111790;27;20507;-75
2023/12/17 05:18:20;;;;;;;;;;;8.50;99.90;;;;;;5111624;27;20214;-75
2023/12/17 05:20:48;;;;;;;;;;;8.40;99.90;;;;;;5105145;27;20043;-76
2023/12/17 05:23:13;;;;;;;;;;;8.50;99.90;;;;;;5103649;27;19966;-76
2023/12/17 05:25:39;;;;;;;;;;;8.40;99.90;;;;;;5093354;27;20005;-75
2023/12/17 05:28:07;;;;;;;;;;;8.40;99.90;;;;;;5096680;27;19927;-76
2023/12/17 05:30:32;;;;;;;;;;;8.40;99.90;;;;;;5107564;27;19927;-76
2023/12/17 05:32:58;;;;;;;;;;;8.40;99.90;;;;;;5093966;27;19931;-76
2023/12/17 05:35:23;;;;;;;;;;;8.40;99.90;;;;;;5122508;27;20017;-76
2023/12/17 05:37:49;;;;;;;;;;;8.50;99.90;;;;;;5107972;27;19930;-75
2023/12/17 05:40:15;;;;;;;;;;;8.40;99.90;;;;;;5087851;27;20305;-76
2023/12/17 05:42:40;;;;;;;;;;;8.40;99.90;;;;;;5108523;27;19941;-76
2023/12/17 05:45:07;;;;;;;;;;;8.40;99.90;;;;;;5108254;27;20195;-76
2023/12/17 05:47:32;;;;;;;;;;;8.40;99.90;;;;;;5104851;27;20389;-75
2023/12/17 05:49:58;;;;;;;;;;;8.40;99.90;;;;;;5109403;27;19975;-75
2023/12/17 05:52:23;;;;;;;;;;;8.40;99.90;;;;;;5087443;27;20785;-76
2023/12/17 05:54:50;;;;;;;;;;;8.40;99.90;;;;;;5092660;27;20035;-76
2023/12/17 05:57:15;;;;;;;;;;;8.40;99.90;;;;;;5095472;27;20520;-76
2023/12/17 05:59:41;;;;;;;;;;;8.40;99.90;;;;;;5094318;27;19986;-75
2023/12/17 06:02:07;;;;;;;;;;;8.40;99.90;;;;;;5100199;27;19979;-76
2023/12/17 06:04:33;;;;;;;;;;;8.40;99.90;;;;;;5109493;27;20014;-76
2023/12/17 06:06:58;;;;;;;;;;;8.40;99.90;;;;;;5108819;27;20379;-76
2023/12/17 06:09:24;;;;;;;;;;;8.50;99.90;;;;;;5089629;27;20254;-75
2023/12/17 06:11:50;;;;;;;;;;;8.40;99.90;;;;;;5108454;27;19923;-76
2023/12/17 06:14:16;;;;;;;;;;;8.40;99.90;;;;;;5110216;27;20378;-76
2023/12/17 06:16:42;;;;;;;;;;;8.40;99.90;;;;;;5109029;27;19928;-76
2023/12/17 06:19:08;;;;;;;;;;;8.40;99.90;;;;;;5108532;27;19935;-76
2023/12/17 06:21:34;;;;;;;;;;;8.40;99.90;;;;;;5115221;27;19923;-75
2023/12/17 06:23:59;;;;;;;;;;;8.40;99.90;;;;;;5097138;27;19931;-76
2023/12/17 06:26:25;;;;;;;;;;;8.40;99.90;;;;;;5113443;27;20020;-76
2023/12/17 06:28:51;;;;;;;;;;;8.40;99.90;;;;;;5096110;27;19974;-75
2023/12/17 06:31:17;;;;;;;;;;;8.50;99.90;;;;;;5089420;27;19980;-75
2023/12/17 06:33:42;;;;;;;;;;;8.50;99.90;;;;;;5107285;27;19931;-75
2023/12/17 06:36:08;;;;;;;;;;;8.40;99.90;;;;;;5111451;27;20437;-76
2023/12/17 06:38:34;;;;;;;;;;;8.40;99.90;;;;;;5111021;27;20380;-75
2023/12/17 06:40:59;;;;;;;;;;;8.40;99.90;;;;;;5110995;27;19934;-74
2023/12/17 06:43:25;;;;;;;;;;;8.40;99.90;;;;;;5109300;27;20179;-75
2023/12/17 06:45:51;;;;;;;;;;;8.40;99.90;;;;;;5131051;27;19981;-74
2023/12/17 06:48:16;;;;;;;;;;;8.40;99.90;;;;;;5102588;27;19927;-75
2023/12/17 06:50:42;;;;;;;;;;;8.40;99.90;;;;;;5099431;27;19927;-75
2023/12/17 06:53:07;;;;;;;;;;;8.40;99.90;;;;;;5102094;27;20436;-75
2023/12/17 06:55:33;;;;;;;;;;;8.40;99.90;;;;;;5126403;27;19927;-75
2023/12/17 06:57:59;;;;;;;;;;;8.40;99.90;;;;;;5094849;27;19977;-74
2023/12/17 07:00:24;;;;;;;;;;;8.40;99.90;;;;;;5106964;27;19927;-75
2023/12/17 07:02:53;;;;;;;;;;;8.40;99.90;;;;;;5093689;27;20270;-75
2023/12/17 07:05:18;;;;;;;;;;;8.40;99.90;;;;;;5111805;27;20393;-74
2023/12/17 07:07:45;;;;;;;;;;;8.40;99.90;;;;;;5108767;27;19961;-75
2023/12/17 07:10:12;;;;;;;;;;;8.40;99.90;;;;;;5113711;27;19931;-75
2023/12/17 07:12:37;;;;;;;;;;;8.40;99.90;;;;;;5090073;27;19934;-74
2023/12/17 07:15:03;;;;;;;;;;;8.40;99.90;;;;;;5106316;27;20251;-75
2023/12/17 07:17:30;;;;;;;;;;;8.40;99.90;;;;;;5108264;27;20369;-74
2023/12/17 07:19:55;;;;;;;;;;;8.40;99.90;;;;;;5097409;27;20138;-75
2023/12/17 07:22:22;;;;;;;;;;;8.40;99.90;;;;;;5096004;27;20429;-74
2023/12/17 07:24:49;;;;;;;;;;;8.40;99.90;;;;;;5110964;27;20230;-75
2023/12/17 07:27:14;;;;;;;;;;;8.40;99.90;;;;;;5090424;27;19932;-75
2023/12/17 07:29:40;;;;;;;;;;;8.40;99.90;;;;;;5110139;27;19927;-75
2023/12/17 07:32:06;;;;;;;;;;;8.40;99.90;;;;;;5107804;27;19927;-75
2023/12/17 07:34:32;;;;;;;;;;;8.30;99.90;;;;;;5093859;27;19973;-75
2023/12/17 07:36:59;;;;;;;;;;;8.30;99.90;;;;;;5108180;27;19938;-75
2023/12/17 07:39:25;;;;;;;;;;;8.30;99.90;;;;;;5092128;27;20245;-75
2023/12/17 07:41:51;;;;;;;;;;;8.30;99.90;;;;;;5103327;27;19967;-75
2023/12/17 07:44:16;;;;;;;;;;;8.30;99.90;;;;;;5093918;27;19927;-75
2023/12/17 07:46:42;;;;;;;;;;;8.30;99.90;;;;;;5093588;27;19944;-75
2023/12/17 07:49:08;;;;;;;;;;;8.30;99.90;;;;;;5105516;27;19931;-75
2023/12/17 07:51:33;;;;;;;;;;;8.30;99.90;;;;;;5104795;27;19919;-75
2023/12/17 07:53:59;;;;;;;;;;;8.20;99.90;;;;;;5109714;27;19927;-75
2023/12/17 07:56:26;;;;;;;;;;;8.20;99.90;;;;;;5106952;27;20068;-75
2023/12/17 07:58:52;;;;;;;;;;;8.30;99.90;;;;;;5107816;27;20377;-76
2023/12/17 08:01:26;;;;;;;;;;;8.30;99.90;;;;;;5108465;27;19934;-76
2023/12/17 08:03:53;;;;;;;;;;;8.20;99.90;;;;;;5108778;27;19938;-75
2023/12/17 08:06:21;;;;;;;;;;;8.20;99.90;;;;;;5124895;27;19928;-76
2023/12/17 08:08:47;;;;;;;;;;;8.20;99.90;;;;;;5106438;27;20271;-75
2023/12/17 08:11:13;;;;;;;;;;;8.20;99.90;;;;;;5108948;27;20010;-75
2023/12/17 08:13:38;;;;;;;;;;;8.20;99.90;;;;;;5110272;27;19931;-76
2023/12/17 08:16:04;;;;;;;;;;;8.20;99.90;;;;;;5089881;27;19923;-75
2023/12/17 08:18:30;;;;;;;;;;;8.10;99.90;;;;;;5108468;27;20847;-75
2023/12/17 08:20:57;;;;;;;;;;;8.10;99.90;;;;;;5090724;27;20130;-76
2023/12/17 08:23:23;;;;;;;;;;;8.10;99.90;;;;;;5107596;27;20022;-75
2023/12/17 08:25:49;;;;;;;;;;;8.10;99.90;;;;;;5091434;27;20373;-75
2023/12/17 08:28:16;;;;;;;;;;;8.10;99.90;;;;;;5088453;27;20063;-75
2023/12/17 08:30:41;;;;;;;;;;;8.10;99.90;;;;;;5115691;27;19927;-75
2023/12/17 08:33:07;;;;;;;;;;;8.10;99.90;;;;;;5096080;27;19931;-75
2023/12/17 08:35:36;;;;;;;;;;;8.20;99.90;;;;;;5103058;27;19923;-75
2023/12/17 08:38:05;;;;;;;;;;;8.20;99.90;;;;;;5111158;27;20030;-75
2023/12/17 08:40:39;;;;;;;;;;;8.20;99.90;;;;;;5099090;27;20245;-75
2023/12/17 08:43:09;;;;;;;;;;;8.20;99.90;;;;;;5105614;27;19927;-75
2023/12/17 08:45:35;;;;;;;;;;;8.20;99.90;;;;;;5104398;27;19933;-74
2023/12/17 08:48:01;;;;;;;;;;;8.30;99.90;;;;;;5115044;27;19928;-75
2023/12/17 08:50:27;;;;;;;;;;;8.30;99.90;;;;;;5116864;27;19935;-75
2023/12/17 08:52:52;;;;;;;;;;;8.30;99.90;;;;;;5098361;27;19928;-76
2023/12/17 08:55:19;;;;;;;;;;;8.30;99.90;;;;;;5115766;27;19974;-75
2023/12/17 08:57:48;;;;;;;;;;;8.40;99.90;;;;;;5113033;27;19923;-75
2023/12/17 09:00:16;;;;;;;;;;;8.40;99.90;;;;;;5112957;27;20408;-75
2023/12/17 09:02:42;;;;;;;;;;;8.50;99.90;;;;;;5114436;27;20612;-75
2023/12/17 09:05:07;;;;;;;;;;;9.70;99.90;;;;;;5112246;27;20393;-75
2023/12/17 09:07:33;;;;;;;;;;;8.50;99.90;;;;;;5110925;27;20036;-75
2023/12/17 09:09:59;;;;;;;;;;;8.60;99.90;;;;;;5101552;27;19927;-75
2023/12/17 09:12:24;;;;;;;;;;;8.60;99.90;;;;;;5117755;27;19919;-75
2023/12/17 09:14:50;;;;;;;;;;;8.60;99.90;;;;;;5116413;27;19931;-75
2023/12/17 09:17:16;;;;;;;;;;;8.60;99.90;;;;;;5115835;27;19923;-74
2023/12/17 09:19:41;;;;;;;;;;;8.50;99.90;;;;;;5114594;27;19927;-75
2023/12/17 09:22:07;;;;;;;;;;;8.60;99.90;;;;;;5109304;27;19941;-75
2023/12/17 09:24:33;;;;;;;;;;;8.60;99.90;;;;;;5105857;27;20281;-75
2023/12/17 09:26:59;;;;;;;;;;;8.60;99.90;;;;;;5100920;27;20385;-75
2023/12/17 09:29:25;;;;;;;;;;;8.60;99.90;;;;;;5113941;27;19927;-75
2023/12/17 09:31:50;;;;;;;;;;;8.60;99.90;;;;;;5113626;27;19930;-75
2023/12/17 09:34:16;;;;;;;;;;;8.60;99.90;;;;;;5116050;27;19955;-75
2023/12/17 09:36:42;;;;;;;;;;;8.60;99.90;;;;;;5115208;27;19928;-75
2023/12/17 09:39:08;;;;;;;;;;;8.70;99.90;;;;;;5109315;27;19928;-75
2023/12/17 09:41:33;;;;;;;;;;;8.70;99.90;;;;;;5112607;27;19935;-75
2023/12/17 09:43:59;;;;;;;;;;;8.70;99.90;;;;;;5111464;27;19927;-75
2023/12/17 09:46:25;;;;;;;;;;;8.70;99.90;;;;;;5101344;27;19927;-75
2023/12/17 09:48:50;;;;;;;;;;;8.70;99.90;;;;;;5112293;27;19924;-75
2023/12/17 09:51:17;;;;;;;;;;;8.70;99.90;;;;;;5094386;27;20305;-75
2023/12/17 09:53:43;;;;;;;;;;;8.80;99.90;;;;;;5105070;27;19923;-75
2023/12/17 09:56:10;;;;;;;;;;;8.80;99.90;;;;;;5111272;27;19927;-75
2023/12/17 09:58:36;;;;;;;;;;;8.80;99.90;;;;;;5102721;27;19960;-75
2023/12/17 10:01:01;;;;;;;;;;;8.80;99.90;;;;;;5096852;27;19985;-75
2023/12/17 10:03:27;;;;;;;;;;;8.80;99.90;;;;;;5116672;27;19931;-75
2023/12/17 10:05:53;;;;;;;;;;;8.80;99.90;;;;;;5113623;27;20340;-75
2023/12/17 10:08:19;;;;;;;;;;;8.80;99.90;;;;;;5108960;27;19932;-75
2023/12/17 10:10:45;;;;;;;;;;;8.80;99.90;;;;;;5113356;27;19938;-75
2023/12/17 10:13:12;;;;;;;;;;;8.80;99.90;;;;;;5122066;27;19928;-75
2023/12/17 10:15:38;;;;;;;;;;;8.80;99.90;;;;;;5118320;27;19975;-75
2023/12/17 10:18:04;;;;;;;;;;;8.80;99.90;;;;;;5090849;27;19927;-75
2023/12/17 10:20:30;;;;;;;;;;;8.80;99.90;;;;;;5123844;27;20021;-75
2023/12/17 10:22:59;;;;;;;;;;;8.80;99.90;;;;;;5120980;27;19931;-75
2023/12/17 10:25:26;;;;;;;;;;;8.80;99.90;;;;;;5123067;27;20495;-75
2023/12/17 10:27:54;;;;;;;;;;;8.90;99.90;;;;;;5107401;27;20435;-75
2023/12/17 10:30:20;;;;;;;;;;;8.90;99.90;;;;;;5096704;27;19948;-75
2023/12/17 10:32:46;;;;;;;;;;;8.90;99.90;;;;;;5106889;27;19963;-75
2023/12/17 10:35:13;;;;;;;;;;;8.90;99.90;;;;;;5104676;27;19966;-75
2023/12/17 10:37:39;;;;;;;;;;;8.90;99.90;;;;;;5121115;27;20344;-75
2023/12/17 10:40:05;;;;;;;;;;;9.00;99.90;;;;;;5107718;27;19997;-75
2023/12/17 10:42:32;;;;;;;;;;;8.90;99.90;;;;;;5115859;27;19928;-76
2023/12/17 10:44:57;;;;;;;;;;;9.00;99.90;;;;;;5121400;27;19931;-75
2023/12/17 10:47:24;;;;;;;;;;;9.00;99.90;;;;;;5120048;27;20281;-75
2023/12/17 10:49:51;;;;;;;;;;;9.00;99.90;;;;;;5100529;27;19927;-75
2023/12/17 10:52:17;;;;;;;;;;;9.00;99.90;;;;;;5097695;27;19980;-75
2023/12/17 10:54:42;;;;;;;;;;;9.00;99.90;;;;;;5124754;27;19927;-75
2023/12/17 10:57:11;;;;;;;;;;;9.00;99.90;;;;;;5107480;27;19923;-75
2023/12/17 10:59:37;;;;;;;;;;;9.00;99.90;;;;;;5113966;27;19943;-75
2023/12/17 11:02:04;;;;;;;;;;;9.00;99.90;;;;;;5119086;27;19923;-75
2023/12/17 11:04:30;;;;;;;;;;;9.00;99.90;;;;;;5118574;27;19962;-76
2023/12/17 11:06:55;;;;;;;;;;;9.00;99.90;;;;;;5116364;27;19954;-75
2023/12/17 11:09:21;;;;;;;;;;;9.00;99.90;;;;;;5119419;27;19927;-75
2023/12/17 11:11:47;;;;;;;;;;;9.00;99.90;;;;;;5112416;27;19931;-75
2023/12/17 11:14:13;;;;;;;;;;;9.00;99.90;;;;;;5134532;27;20394;-76
2023/12/17 11:16:39;;;;;;;;;;;9.00;99.90;;;;;;5118096;27;19930;-75
2023/12/17 11:19:05;;;;;;;;;;;9.00;99.90;;;;;;5112627;27;20084;-75
2023/12/17 11:21:37;;;;;;;;;;;9.00;99.90;;;;;;5107930;27;20036;-75
2023/12/17 11:24:04;;;;;;;;;;;9.10;99.90;;;;;;5104677;27;19997;-75
2023/12/17 11:26:37;;;;;;;;;;;9.10;99.90;;;;;;5111861;27;19938;-74
2023/12/17 11:29:23;;;;;;;;;;;9.10;99.90;;;;;;5108567;27;19923;-77
2023/12/17 11:31:49;;;;;;;;;;;9.20;99.90;;;;;;5117573;27;20290;-73
2023/12/17 11:34:15;;;;;;;;;;;9.20;99.90;;;;;;5089211;27;19923;-74
2023/12/17 11:36:41;;;;;;;;;;;9.20;99.90;;;;;;5100306;27;19928;-74
2023/12/17 11:39:08;;;;;;;;;;;9.20;99.90;;;;;;5116726;27;19935;-74
2023/12/17 11:41:34;;;;;;;;;;;9.20;99.90;;;;;;5123078;27;20012;-74
2023/12/17 11:44:03;;;;;;;;;;;9.20;99.90;;;;;;5104671;27;20778;-75
2023/12/17 11:46:28;;;;;;;;;;;9.10;99.90;;;;;;5111880;27;19923;-74
2023/12/17 11:48:54;;;;;;;;;;;9.20;99.90;;;;;;5111297;27;19923;-74
2023/12/17 11:51:26;;;;;;;;;;;9.10;99.90;;;;;;5119272;27;19923;-74
2023/12/17 11:53:52;;;;;;;;;;;9.20;99.90;;;;;;5120158;27;19927;-75
2023/12/17 11:56:27;;;;;;;;;;;9.20;99.90;;;;;;5108632;27;19934;-75
2023/12/17 11:58:53;;;;;;;;;;;9.20;99.90;;;;;;5110573;27;20353;-74
2023/12/17 12:01:19;;;;;;;;;;;9.20;99.90;;;;;;5118820;27;19927;-75
2023/12/17 12:03:45;;;;;;;;;;;9.20;99.90;;;;;;5116882;27;19934;-75
2023/12/17 12:06:11;;;;;;;;;;;9.20;99.90;;;;;;5113030;27;19923;-75
2023/12/17 12:08:37;;;;;;;;;;;9.20;99.90;;;;;;5101698;27;19939;-75
2023/12/17 12:11:03;;;;;;;;;;;9.30;99.90;;;;;;5112844;27;20055;-75
2023/12/17 12:13:30;;;;;;;;;;;9.20;99.90;;;;;;5072922;27;20457;-74
2023/12/17 12:15:56;;;;;;;;;;;9.20;99.90;;;;;;5118476;27;19975;-75
2023/12/17 12:18:22;;;;;;;;;;;9.20;99.90;;;;;;5116002;27;19927;-75
2023/12/17 12:20:48;;;;;;;;;;;9.20;99.90;;;;;;5119035;27;19972;-75
2023/12/17 12:23:14;;;;;;;;;;;9.20;99.90;;;;;;5115291;27;19998;-74
2023/12/17 12:25:40;;;;;;;;;;;9.20;99.90;;;;;;5120590;27;20022;-75
2023/12/17 12:28:19;;;;;;;;;;;9.20;99.90;;;;;;5115465;27;20441;-75
2023/12/17 12:30:45;;;;;;;;;;;9.20;99.90;;;;;;5113982;27;20456;-75
2023/12/17 12:33:11;;;;;;;;;;;9.20;99.90;;;;;;5113871;27;19978;-75
2023/12/17 12:35:38;;;;;;;;;;;9.20;99.90;;;;;;5111991;27;20440;-75
2023/12/17 12:38:23;;;;;;;;;;;9.30;99.90;;;;;;5114568;27;19934;-75
2023/12/17 12:40:53;;;;;;;;;;;9.20;99.90;;;;;;5117889;27;20377;-75
2023/12/17 12:43:21;;;;;;;;;;;9.20;99.90;;;;;;5103952;27;19930;-75
2023/12/17 12:45:47;;;;;;;;;;;9.20;99.90;;;;;;5120712;27;19927;-75
2023/12/17 12:48:16;;;;;;;;;;;9.20;99.90;;;;;;5119331;27;19977;-76
2023/12/17 12:50:42;;;;;;;;;;;9.30;99.90;;;;;;5113849;27;19932;-75
2023/12/17 12:53:08;;;;;;;;;;;9.20;99.90;;;;;;5109123;27;20278;-75
2023/12/17 12:55:34;;;;;;;;;;;9.20;99.90;;;;;;5105123;27;19923;-75
2023/12/17 12:58:00;;;;;;;;;;;9.20;99.90;;;;;;5117724;27;20052;-75
2023/12/17 13:00:25;;;;;;;;;;;9.20;99.90;;;;;;5110298;27;20391;-76
2023/12/17 13:02:51;;;;;;;;;;;9.20;99.90;;;;;;5131305;27;19924;-75
2023/12/17 13:05:22;;;;;;;;;;;9.10;99.90;;;;;;5115194;27;20297;-75
2023/12/17 13:07:51;;;;;;;;;;;9.10;99.90;;;;;;5109776;27;20847;-75
2023/12/17 13:10:17;;;;;;;;;;;9.10;99.90;;;;;;5098802;27;20003;-75
2023/12/17 13:12:43;;;;;;;;;;;9.10;99.90;;;;;;5110959;27;20375;-76
2023/12/17 13:15:08;;;;;;;;;;;9.10;99.90;;;;;;5111763;27;19927;-77
2023/12/17 13:17:34;;;;;;;;;;;9.00;99.90;;;;;;5112142;27;20019;-74
2023/12/17 13:20:00;;;;;;;;;;;9.00;99.90;;;;;;5100828;27;19935;-75
2023/12/17 13:22:26;;;;;;;;;;;9.00;99.90;;;;;;5117360;27;19930;-75
2023/12/17 13:24:52;;;;;;;;;;;9.00;99.90;;;;;;5108158;27;20005;-75
2023/12/17 13:27:20;;;;;;;;;;;9.00;99.90;;;;;;5117887;27;19959;-75
2023/12/17 13:29:45;;;;;;;;;;;9.00;99.90;;;;;;5119822;27;19926;-75
2023/12/17 13:32:11;;;;;;;;;;;8.90;99.90;;;;;;5112340;27;19953;-75
2023/12/17 13:34:36;;;;;;;;;;;8.90;99.90;;;;;;5121519;27;19931;-75
2023/12/17 13:37:02;;;;;;;;;;;8.90;99.90;;;;;;5116328;27;19934;-75
2023/12/17 13:39:28;;;;;;;;;;;8.90;99.90;;;;;;5140608;27;20765;-75
2023/12/17 13:41:54;;;;;;;;;;;8.90;99.90;;;;;;5111467;27;20425;-75
2023/12/17 13:44:19;;;;;;;;;;;8.80;99.90;;;;;;5142595;27;20023;-75
2023/12/17 13:46:46;;;;;;;;;;;8.80;99.90;;;;;;5118715;27;19919;-75
2023/12/17 13:49:11;;;;;;;;;;;8.80;99.90;;;;;;5120625;27;19924;-75
2023/12/17 13:51:37;;;;;;;;;;;8.70;99.90;;;;;;5118194;27;19939;-75
2023/12/17 13:54:03;;;;;;;;;;;8.70;99.90;;;;;;5116723;27;19923;-74
2023/12/17 13:56:29;;;;;;;;;;;8.70;99.90;;;;;;5115515;27;20417;-75
2023/12/17 13:58:54;;;;;;;;;;;8.70;99.90;;;;;;5089068;27;19935;-75
2023/12/17 14:01:21;;;;;;;;;;;8.70;99.90;;;;;;5107832;27;20034;-75
2023/12/17 14:03:47;;;;;;;;;;;8.60;99.90;;;;;;5108638;27;20433;-75
2023/12/17 14:06:18;;;;;;;;;;;8.60;99.90;;;;;;5120173;27;20092;-75
2023/12/17 14:08:44;;;;;;;;;;;8.60;99.90;;;;;;5103329;27;19971;-75
2023/12/17 14:11:10;;;;;;;;;;;8.60;99.90;;;;;;5098257;27;19928;-75
2023/12/17 14:13:36;;;;;;;;;;;8.60;99.90;;;;;;5114306;27;19961;-76
2023/12/17 14:16:02;;;;;;;;;;;8.60;99.90;;;;;;5115978;27;20082;-75
2023/12/17 14:18:28;;;;;;;;;;;8.60;99.90;;;;;;5103834;27;19927;-76
2023/12/17 14:20:54;;;;;;;;;;;8.60;99.90;;;;;;5116994;27;19931;-75
2023/12/17 14:23:20;;;;;;;;;;;8.50;99.90;;;;;;5099187;27;19927;-76
2023/12/17 14:25:47;;;;;;;;;;;8.60;99.90;;;;;;5094434;27;19934;-76